Eger, Hungary
Current Conditions -  °F | °C
As of 12:45 PM on Friday 19 Dec 2014 (Local Time) from LHSN Reporting Station
Clear Clear  
Wind Chill: 44°   Ceiling: Unl
Heat Index: 48°   Visibility: 6mi
Dew Point: 45°   Wind: 9mph
Humidity: 87%   Direction: 220°SW
Pressure: 30.06"   Gusts: NA
Location:  47.9°N, 20.38°E
Report Text: LHSN 191045Z 22008KT CAVOK 09/07 Q1018 NOSIG RMK BLU
Loading
Personal Weather Stations






























Interactive Weather Map New forecast layout! Learn more

10-Day Weather Forecast

Advertisements
Track Severe Weather on mobile